Time;durP1;ratioP1;P1;durP2;ratioP2;P2;SDS_P1;SDS_P2;PMS_P1;PMS_P2;Temp;Humidity;BMP_temperature;BMP_pressure;BME280_temperature;BME280_humidity;BME280_pressure;Samples;Min_cycle;Max_cycle;Signal;HPM_P1;HPM_P2
2022/12/09 01:26:38;;;;;;;17.00;8.03;;;;;;;-0.75;100.00;100431.17;1830204;77;22114;-52
2022/12/09 01:29:09;;;;;;;13.48;6.92;;;;;;;-0.77;100.00;100419.68;1788824;80;21127;-52
2022/12/09 01:31:38;;;;;;;13.22;6.58;;;;;;;-0.76;100.00;100420.05;1788638;79;21111;-52
2022/12/09 01:34:09;;;;;;;15.30;6.87;;;;;;;-0.75;100.00;100430.31;1788635;79;21143;-51
2022/12/09 01:36:38;;;;;;;14.50;6.92;;;;;;;-0.72;100.00;100428.72;1788687;80;21522;-52
2022/12/09 01:39:07;;;;;;;14.05;6.62;;;;;;;-0.70;100.00;100417.34;1788684;80;21111;-52
2022/12/09 01:41:36;;;;;;;14.33;7.08;;;;;;;-0.68;100.00;100408.16;1788620;80;21586;-51
2022/12/09 01:44:23;;;;;;;12.70;6.33;;;;;;;-0.68;100.00;100408.66;1788949;80;21146;-52
2022/12/09 01:46:57;;;;;;;11.28;5.28;;;;;;;-0.69;100.00;100416.36;1789031;80;21103;-52
2022/12/09 01:49:34;;;;;;;14.43;6.58;;;;;;;-0.70;100.00;100430.30;1788613;80;21166;-52
2022/12/09 01:52:20;;;;;;;13.00;6.35;;;;;;;-0.71;100.00;100425.05;1788786;80;21177;-51
2022/12/09 01:54:49;;;;;;;15.28;7.17;;;;;;;-0.72;100.00;100416.13;1788628;80;21131;-51
2022/12/09 01:57:19;;;;;;;15.43;7.10;;;;;;;-0.73;100.00;100419.80;1788589;80;21190;-51
2022/12/09 01:59:51;;;;;;;14.75;7.83;;;;;;;-0.76;100.00;100416.01;1788619;80;21589;-52
2022/12/09 02:02:20;;;;;;;16.95;7.47;;;;;;;-0.75;100.00;100408.80;1788815;80;21151;-52
2022/12/09 02:04:51;;;;;;;19.55;8.70;;;;;;;-0.77;100.00;100407.58;1788819;80;21142;-51
2022/12/09 02:07:20;;;;;;;21.00;8.65;;;;;;;-0.74;100.00;100410.50;1788571;80;21146;-51
2022/12/09 02:09:53;;;;;;;17.07;7.92;;;;;;;-0.71;100.00;100403.52;1788880;79;21091;-51
2022/12/09 02:12:38;;;;;;;17.95;8.50;;;;;;;-0.71;100.00;100400.34;1788503;79;21166;-52
2022/12/09 02:15:21;;;;;;;17.87;7.92;;;;;;;-0.70;100.00;100394.47;1789137;80;21146;-53
2022/12/09 02:18:01;;;;;;;16.67;7.15;;;;;;;-0.73;100.00;100392.03;1768985;80;21150;-52
2022/12/09 02:20:41;;;;;;;16.15;7.70;;;;;;;-0.75;100.00;100390.81;1788947;80;21135;-52
2022/12/09 02:23:24;;;;;;;16.32;7.97;;;;;;;-0.75;100.00;100383.23;1788798;80;21588;-52
2022/12/09 02:26:16;;;;;;;22.07;8.30;;;;;;;-0.75;100.00;100396.69;1788699;80;21098;-52
2022/12/09 02:29:23;;;;;;;17.87;7.58;;;;;;;-0.79;100.00;100387.16;1788903;80;21150;-52
2022/12/09 02:32:16;;;;;;;18.62;8.03;;;;;;;-0.78;100.00;100400.48;1762886;79;21154;-53
2022/12/09 02:35:00;;;;;;;13.75;6.50;;;;;;;-0.78;100.00;100406.36;1788867;80;21103;-52
2022/12/09 02:37:37;;;;;;;15.50;7.67;;;;;;;-0.79;100.00;100406.84;1788425;80;21163;-51
2022/12/09 02:40:14;;;;;;;15.75;7.40;;;;;;;-0.79;100.00;100417.60;1788528;80;21173;-51
2022/12/09 02:42:43;;;;;;;10.45;4.72;;;;;;;-0.79;100.00;100426.16;1782377;80;21115;-51
2022/12/09 02:45:12;;;;;;;16.77;7.83;;;;;;;-0.78;100.00;100431.42;1788573;80;21147;-51
2022/12/09 02:47:47;;;;;;;17.12;7.78;;;;;;;-0.77;100.00;100422.37;1788340;80;21150;-51
2022/12/09 02:50:20;;;;;;;15.18;7.58;;;;;;;-0.77;100.00;100419.68;1788271;80;21103;-52
2022/12/09 02:52:52;;;;;;;15.45;7.00;;;;;;;-0.75;100.00;100424.94;1788278;80;21131;-51
2022/12/09 02:55:21;;;;;;;15.68;7.10;;;;;;;-0.76;100.00;100417.35;1788268;80;21118;-54
2022/12/09 02:57:54;;;;;;;16.17;7.80;;;;;;;-0.74;100.00;100417.23;1788397;80;21189;-52
2022/12/09 03:00:24;;;;;;;17.25;8.43;;;;;;;-0.73;100.00;100410.87;1788264;80;21135;-53
2022/12/09 03:02:57;;;;;;;19.37;8.35;;;;;;;-0.76;100.00;100406.59;1788301;80;21146;-52
2022/12/09 03:05:50;;;;;;;18.42;8.30;;;;;;;-0.78;100.00;100409.90;1788535;80;21111;-52
2022/12/09 03:08:37;;;;;;;17.77;7.67;;;;;;;-0.76;100.00;100416.50;1788291;80;21878;-50
2022/12/09 03:11:16;;;;;;;17.25;8.23;;;;;;;-0.75;100.00;100412.34;1788366;80;21107;-56
2022/12/09 03:14:27;;;;;;;14.60;6.92;;;;;;;-0.73;100.00;100410.87;1788278;80;21529;-51
2022/12/09 03:17:04;;;;;;;16.10;7.25;;;;;;;-0.74;100.00;100412.70;1788358;80;21162;-51
2022/12/09 03:19:43;;;;;;;16.07;7.30;;;;;;;-0.72;100.00;100403.16;1788380;79;21592;-51
2022/12/09 03:22:16;;;;;;;15.18;6.62;;;;;;;-0.73;100.00;100400.11;1788236;80;21107;-51
2022/12/09 03:25:02;;;;;;;11.15;5.78;;;;;;;-0.75;100.00;100398.89;1788393;80;21087;-50
2022/12/09 03:27:37;;;;;;;12.18;5.72;;;;;;;-0.78;100.00;100408.55;1788672;80;21120;-51
2022/12/09 03:30:09;;;;;;;12.95;6.17;;;;;;;-0.78;100.00;100409.90;1788310;80;21083;-51
2022/12/09 03:32:39;;;;;;;14.10;6.47;;;;;;;-0.75;100.00;100427.13;1788339;80;21107;-50
2022/12/09 03:35:33;;;;;;;13.35;6.50;;;;;;;-0.74;100.00;100426.64;1788314;80;21580;-51
2022/12/09 03:38:05;;;;;;;12.37;5.90;;;;;;;-0.75;100.00;100416.86;1788473;80;21111;-50
2022/12/09 03:40:34;;;;;;;13.80;6.25;;;;;;;-0.76;100.00;100410.63;1788509;80;21514;-51
2022/12/09 03:43:17;;;;;;;11.43;5.72;;;;;;;-0.78;100.00;100407.70;1769813;80;21130;-51
2022/12/09 03:45:46;;;;;;;11.03;5.70;;;;;;;-0.80;100.00;100406.48;1788282;80;21083;-52
2022/12/09 03:48:15;;;;;;;11.08;5.20;;;;;;;-0.82;100.00;100402.20;1788294;80;21159;-51
2022/12/09 03:50:56;;;;;;;12.37;5.62;;;;;;;-0.83;100.00;100407.22;1788342;80;21103;-52
2022/12/09 03:53:39;;;;;;;11.18;5.75;;;;;;;-0.83;100.00;100397.31;1770769;79;21174;-50
2022/12/09 03:56:35;;;;;;;12.45;5.55;;;;;;;-0.86;99.89;100408.81;1754779;79;21103;-51
2022/12/09 03:59:10;;;;;;;12.25;5.90;;;;;;;-0.89;99.77;100391.58;1788360;80;21107;-51
2022/12/09 04:01:42;;;;;;;12.07;5.58;;;;;;;-0.88;99.85;100402.70;1788333;80;21127;-52
2022/12/09 04:04:14;;;;;;;12.78;6.10;;;;;;;-0.86;99.81;100402.09;1788247;80;21119;-51
2022/12/09 04:06:43;;;;;;;12.98;5.65;;;;;;;-0.85;99.78;100400.62;1788252;80;21122;-51
2022/12/09 04:09:13;;;;;;;12.05;5.90;;;;;;;-0.84;99.77;100402.33;1788267;80;21111;-51
2022/12/09 04:11:44;;;;;;;14.23;6.28;;;;;;;-0.85;99.61;100401.11;1736594;82;21100;-51
2022/12/09 04:14:14;;;;;;;12.20;6.08;;;;;;;-0.85;99.50;100394.39;1736586;82;21194;-50
2022/12/09 04:16:44;;;;;;;11.57;5.65;;;;;;;-0.86;99.39;100392.67;1736651;82;21186;-52
2022/12/09 04:19:15;;;;;;;15.72;7.15;;;;;;;-0.88;99.33;100387.91;1661566;86;21263;-50
2022/12/09 04:21:44;;;;;;;16.10;7.10;;;;;;;-0.88;99.29;100387.91;1736669;82;21192;-51
2022/12/09 04:24:14;;;;;;;13.75;5.85;;;;;;;-0.86;99.25;100381.92;1661677;86;21182;-50
2022/12/09 04:26:44;;;;;;;13.40;6.67;;;;;;;-0.85;99.19;100389.01;1731130;82;21159;-51
2022/12/09 04:29:13;;;;;;;15.23;6.90;;;;;;;-0.86;99.15;100391.33;1739980;80;21111;-51
2022/12/09 04:31:43;;;;;;;15.53;7.37;;;;;;;-0.86;99.14;100391.33;1782747;80;21499;-51
2022/12/09 04:34:13;;;;;;;14.87;6.92;;;;;;;-0.85;99.13;100380.45;1782698;80;21123;-52
2022/12/09 04:36:43;;;;;;;14.85;6.65;;;;;;;-0.85;99.12;100368.84;1782854;79;21116;-51
2022/12/09 04:39:12;;;;;;;13.50;6.47;;;;;;;-0.83;99.13;100370.91;1782705;80;21193;-52
2022/12/09 04:41:42;;;;;;;14.43;6.72;;;;;;;-0.84;99.02;100368.71;1782746;80;21107;-50
2022/12/09 04:44:12;;;;;;;14.18;6.65;;;;;;;-0.82;99.03;100373.47;1782746;80;21119;-50
2022/12/09 04:46:41;;;;;;;13.53;6.05;;;;;;;-0.82;98.93;100368.58;1782793;80;21131;-53
2022/12/09 04:49:11;;;;;;;11.83;5.95;;;;;;;-0.83;98.87;100356.11;1782686;80;21147;-51
2022/12/09 04:51:40;;;;;;;12.82;5.50;;;;;;;-0.83;98.83;100354.28;1782702;80;21202;-51
2022/12/09 04:54:13;;;;;;;12.78;6.35;;;;;;;-0.83;98.71;100353.42;1782671;80;21115;-53
2022/12/09 04:56:43;;;;;;;11.70;6.05;;;;;;;-0.85;98.62;100348.66;1782761;80;21110;-51
2022/12/09 04:59:12;;;;;;;13.70;5.90;;;;;;;-0.84;98.62;100355.27;1782964;80;21139;-51
2022/12/09 05:01:42;;;;;;;11.43;6.10;;;;;;;-0.85;98.58;100353.55;1782747;80;21142;-52
2022/12/09 05:04:11;;;;;;;13.15;6.22;;;;;;;-0.81;98.57;100355.50;1782717;79;21131;-53
2022/12/09 05:06:40;;;;;;;16.17;6.97;;;;;;;-0.78;98.49;100347.17;1782710;80;21147;-51
2022/12/09 05:09:11;;;;;;;16.25;7.50;;;;;;;-0.78;98.39;100345.83;1782736;80;21107;-50
2022/12/09 05:11:43;;;;;;;17.45;7.78;;;;;;;-0.81;98.32;100342.91;1782727;80;21162;-50
2022/12/09 05:14:13;;;;;;;20.25;8.20;;;;;;;-0.79;98.29;100348.16;1782950;79;21502;-50
2022/12/09 05:16:43;;;;;;;18.80;8.05;;;;;;;-0.80;98.20;100341.07;1782745;80;21139;-50
2022/12/09 05:19:14;;;;;;;17.42;7.85;;;;;;;-0.81;98.31;100346.09;1783317;79;21087;-48
2022/12/09 05:21:45;;;;;;;20.23;9.60;;;;;;;-0.83;98.16;100345.36;1782671;80;21119;-48
2022/12/09 05:24:14;;;;;;;13.58;7.30;;;;;;;-0.85;98.16;100343.28;1782708;80;21127;-48
2022/12/09 05:26:44;;;;;;;15.13;7.80;;;;;;;-0.84;98.20;100336.44;1778317;80;21108;-48
2022/12/09 05:29:13;;;;;;;16.02;8.20;;;;;;;-0.84;98.12;100328.86;1774402;81;21104;-48
2022/12/09 05:31:46;;;;;;;21.40;10.30;;;;;;;-0.84;98.11;100328.36;1774292;80;21108;-49
2022/12/09 05:34:17;;;;;;;16.40;7.80;;;;;;;-0.84;97.97;100332.89;1774489;80;21515;-49
2022/12/09 05:36:46;;;;;;;20.82;9.75;;;;;;;-0.82;97.94;100339.00;1774484;81;21108;-48
2022/12/09 05:39:16;;;;;;;18.42;7.87;;;;;;;-0.84;97.83;100336.44;1774422;81;21127;-49
2022/12/09 05:41:47;;;;;;;20.62;8.83;;;;;;;-0.86;97.79;100339.73;1774343;80;21108;-48
2022/12/09 05:44:16;;;;;;;24.60;9.63;;;;;;;-0.86;97.83;100337.05;1774535;81;21155;-49
2022/12/09 05:46:46;;;;;;;39.48;15.13;;;;;;;-0.84;97.87;100339.13;1774528;81;21104;-49
2022/12/09 05:49:16;;;;;;;29.98;13.53;;;;;;;-0.81;97.83;100338.02;1774419;81;21147;-49
2022/12/09 05:51:46;;;;;;;30.15;12.47;;;;;;;-0.83;97.67;100331.42;1774422;80;21563;-49
2022/12/09 05:54:17;;;;;;;26.57;11.70;;;;;;;-0.84;97.73;100340.47;1774614;81;21143;-49
2022/12/09 05:56:46;;;;;;;20.70;9.28;;;;;;;-0.83;97.76;100335.94;1774334;81;21507;-49
2022/12/09 05:59:17;;;;;;;16.80;7.83;;;;;;;-0.84;97.76;100332.89;1774613;79;21543;-48
2022/12/09 06:01:46;;;;;;;17.42;8.25;;;;;;;-0.84;97.75;100332.89;1774270;81;21104;-48
2022/12/09 06:04:16;;;;;;;19.05;9.20;;;;;;;-0.85;97.76;100335.22;1774535;81;21127;-48
2022/12/09 06:06:46;;;;;;;15.53;7.75;;;;;;;-0.84;97.82;100344.50;1774319;81;21202;-50
2022/12/09 06:09:16;;;;;;;15.65;8.03;;;;;;;-0.82;97.86;100347.92;1774508;80;21246;-50
2022/12/09 06:11:48;;;;;;;31.90;12.85;;;;;;;-0.78;97.94;100352.06;1774580;81;21127;-49
2022/12/09 06:14:18;;;;;;;30.52;11.90;;;;;;;-0.75;97.96;100342.89;1774621;81;21531;-49
2022/12/09 06:16:49;;;;;;;39.35;14.98;;;;;;;-0.74;97.93;100335.18;1774428;81;21107;-48
2022/12/09 06:19:19;;;;;;;26.82;11.70;;;;;;;-0.71;97.94;100337.12;1774426;81;21543;-50
2022/12/09 06:21:49;;;;;;;26.35;11.78;;;;;;;-0.71;97.88;100334.92;1774485;81;21167;-50
2022/12/09 06:24:20;;;;;;;22.93;10.55;;;;;;;-0.70;97.91;100342.87;1774451;81;21174;-49
2022/12/09 06:26:53;;;;;;;22.17;11.15;;;;;;;-0.71;97.91;100337.12;1780493;80;21127;-49
2022/12/09 06:29:23;;;;;;;30.27;13.95;;;;;;;-0.71;97.86;100341.16;1747574;80;21545;-50
2022/12/09 06:31:53;;;;;;;21.12;11.22;;;;;;;-0.68;97.92;100331.98;1788280;80;21111;-49
2022/12/09 06:34:22;;;;;;;21.87;10.45;;;;;;;-0.66;97.91;100322.80;1788180;80;21107;-49
2022/12/09 06:36:53;;;;;;;27.82;12.60;;;;;;;-0.64;97.86;100317.33;1788365;80;21106;-49
2022/12/09 06:39:22;;;;;;;35.23;15.38;;;;;;;-0.64;97.82;100318.67;1788324;80;21111;-49
2022/12/09 06:41:52;;;;;;;32.30;15.72;;;;;;;-0.60;97.81;100326.84;1788190;80;21111;-49
2022/12/09 06:44:21;;;;;;;34.55;16.25;;;;;;;-0.60;97.79;100329.53;1788219;79;21158;-49
2022/12/09 06:46:53;;;;;;;33.88;14.85;;;;;;;-0.59;97.79;100340.66;1788160;79;21336;-50
2022/12/09 06:49:23;;;;;;;35.70;15.30;;;;;;;-0.62;97.72;100334.69;1788224;80;21531;-50
2022/12/09 06:51:53;;;;;;;54.50;21.87;;;;;;;-0.60;97.89;100338.95;1788326;80;21118;-50
2022/12/09 06:54:23;;;;;;;66.40;26.37;;;;;;;-0.57;97.90;100342.73;1788180;80;21107;-50
2022/12/09 06:56:54;;;;;;;71.42;27.25;;;;;;;-0.56;97.92;100333.68;1788470;80;21202;-49
2022/12/09 06:59:24;;;;;;;73.22;28.98;;;;;;;-0.54;97.95;100338.44;1788220;79;21158;-50
2022/12/09 07:01:55;;;;;;;58.02;24.50;;;;;;;-0.52;97.98;100332.93;1788329;80;21103;-48
2022/12/09 07:04:25;;;;;;;55.10;23.75;;;;;;;-0.52;97.88;100332.44;1788184;80;21126;-49
2022/12/09 07:06:56;;;;;;;48.75;21.37;;;;;;;-0.54;97.80;100329.52;1788359;80;21142;-50
2022/12/09 07:09:26;;;;;;;42.15;18.25;;;;;;;-0.57;97.80;100332.46;1788148;80;21104;-49
2022/12/09 07:11:58;;;;;;;37.60;15.45;;;;;;;-0.59;97.87;100323.66;1788198;80;21103;-49
2022/12/09 07:14:28;;;;;;;37.78;17.10;;;;;;;-0.56;97.99;100326.95;1788227;80;21139;-49
2022/12/09 07:17:00;;;;;;;35.40;16.37;;;;;;;-0.53;98.05;100324.00;1788297;79;21139;-51
2022/12/09 07:19:31;;;;;;;35.55;15.05;;;;;;;-0.50;98.11;100317.52;1771641;80;21150;-50
2022/12/09 07:22:00;;;;;;;37.20;15.15;;;;;;;-0.50;98.11;100310.29;1788430;80;21118;-49
2022/12/09 07:24:31;;;;;;;36.08;14.68;;;;;;;-0.48;98.17;100304.78;1788295;79;21147;-49
2022/12/09 07:27:01;;;;;;;36.77;15.83;;;;;;;-0.49;98.11;100305.27;1788283;80;21108;-50
2022/12/09 07:29:34;;;;;;;36.10;15.18;;;;;;;-0.47;98.12;100307.83;1770629;80;21143;-49
2022/12/09 07:32:07;;;;;;;37.42;14.20;;;;;;;-0.48;98.21;100302.94;1788317;79;21110;-50
2022/12/09 07:34:38;;;;;;;40.00;16.00;;;;;;;-0.47;98.18;100297.92;1788254;79;21138;-50
2022/12/09 07:37:09;;;;;;;34.63;13.55;;;;;;;-0.47;98.22;100292.54;1788280;80;21573;-50
2022/12/09 07:39:41;;;;;;;31.02;13.53;;;;;;;-0.42;98.30;100294.84;1788247;80;21099;-51
2022/12/09 07:42:10;;;;;;;27.42;13.43;;;;;;;-0.37;98.35;100291.27;1788173;79;21612;-50
2022/12/09 07:44:43;;;;;;;28.52;12.28;;;;;;;-0.36;98.31;100284.89;1787850;80;21071;-52
2022/12/09 07:47:14;;;;;;;27.62;11.53;;;;;;;-0.37;98.31;100281.35;1788517;79;21119;-51
2022/12/09 07:49:44;;;;;;;26.17;12.15;;;;;;;-0.36;98.28;100284.41;1788575;79;21119;-51
2022/12/09 07:52:16;;;;;;;28.52;12.25;;;;;;;-0.34;98.25;100286.47;1788210;80;21103;-52
2022/12/09 07:54:45;;;;;;;20.60;10.10;;;;;;;-0.34;98.17;100293.70;1788474;80;21111;-52
2022/12/09 07:57:16;;;;;;;28.52;11.80;;;;;;;-0.33;98.27;100295.41;1788265;80;21154;-54
2022/12/09 07:59:46;;;;;;;27.95;11.83;;;;;;;-0.30;98.34;100304.56;1788449;80;21130;-52
2022/12/09 08:02:16;;;;;;;27.32;11.75;;;;;;;-0.27;98.29;100309.69;1788265;80;21546;-54
2022/12/09 08:04:45;;;;;;;41.05;17.10;;;;;;;-0.22;98.21;100302.56;1788500;80;21111;-54
2022/12/09 08:07:15;;;;;;;37.55;15.45;;;;;;;-0.21;98.19;100298.39;1788346;80;21250;-54
2022/12/09 08:09:45;;;;;;;30.02;14.25;;;;;;;-0.20;98.08;100303.28;1788211;80;21551;-53
2022/12/09 08:12:15;;;;;;;29.40;12.98;;;;;;;-0.19;98.15;100300.95;1788257;80;21158;-53
2022/12/09 08:14:45;;;;;;;26.75;12.43;;;;;;;-0.17;98.13;100293.11;1788229;80;21593;-53
2022/12/09 08:17:14;;;;;;;24.43;10.82;;;;;;;-0.13;98.07;100292.34;1788348;80;21095;-54
2022/12/09 08:19:44;;;;;;;22.50;10.05;;;;;;;-0.10;98.02;100294.78;1788477;80;21103;-53
2022/12/09 08:28:57;;;;;;;50.05;18.85;;;;;;;0.04;97.83;100289.58;1845620;77;22167;-54
2022/12/09 08:31:28;;;;;;;46.30;17.80;;;;;;;0.01;97.80;100281.76;1806822;79;21189;-55
2022/12/09 08:34:03;;;;;;;35.88;14.90;;;;;;;0.02;97.68;100276.23;1734717;82;21146;-55
2022/12/09 08:36:35;;;;;;;23.47;10.23;;;;;;;0.05;97.73;100264.34;1736409;82;21148;-55
2022/12/09 08:39:04;;;;;;;24.67;10.65;;;;;;;0.10;97.72;100265.65;1707484;82;21190;-54
2022/12/09 08:41:36;;;;;;;21.20;9.13;;;;;;;0.14;97.53;100266.23;1801940;79;21108;-54
2022/12/09 08:44:18;;;;;;;20.02;9.13;;;;;;;0.16;97.42;100269.65;1723246;82;21131;-54
2022/12/09 08:46:49;;;;;;;20.72;8.85;;;;;;;0.17;97.41;100267.31;1806384;79;21119;-54
2022/12/09 08:49:21;;;;;;;23.18;10.78;;;;;;;0.20;97.30;100265.70;1730889;82;21104;-54
2022/12/09 08:51:52;;;;;;;21.35;9.13;;;;;;;0.25;97.31;100256.72;1807100;79;21568;-54
2022/12/09 08:54:22;;;;;;;20.43;9.18;;;;;;;0.29;97.24;100257.66;1759703;81;21140;-57
2022/12/09 08:56:53;;;;;;;17.80;8.90;;;;;;;0.34;97.19;100259.09;1777361;80;21115;-55
2022/12/09 08:59:23;;;;;;;22.75;10.72;;;;;;;0.40;97.22;100262.09;1716135;83;21154;-53
2022/12/09 09:01:54;;;;;;;23.30;9.73;;;;;;;0.44;97.13;100266.72;1775078;80;21162;-55
2022/12/09 09:04:27;;;;;;;28.07;12.30;;;;;;;0.50;97.18;100265.67;1775041;80;21771;-54
2022/12/09 09:06:56;;;;;;;34.63;13.25;;;;;;;0.51;96.82;100269.22;1774780;81;21117;-56
2022/12/09 09:09:27;;;;;;;34.23;14.47;;;;;;;0.48;96.66;100260.92;1774784;80;21199;-56
2022/12/09 09:11:56;;;;;;;36.98;15.08;;;;;;;0.49;96.69;100249.64;1775112;80;21544;-54
2022/12/09 09:14:25;;;;;;;36.33;16.17;;;;;;;0.52;96.72;100247.52;1774839;81;21176;-57
2022/12/09 09:16:54;;;;;;;45.48;18.55;;;;;;;0.55;96.69;100240.51;1774879;81;21085;-55
2022/12/09 09:19:26;;;;;;;49.18;19.62;;;;;;;0.57;96.44;100240.37;1774727;80;21164;-55
2022/12/09 09:21:57;;;;;;;42.93;21.00;;;;;;;0.57;96.37;100239.02;1778966;80;21089;-55
2022/12/09 09:24:27;;;;;;;43.60;19.57;;;;;;;0.59;96.35;100246.48;1775516;80;21131;-55
2022/12/09 09:26:57;;;;;;;31.75;15.80;;;;;;;0.61;96.30;100251.23;1775971;80;21210;-55
2022/12/09 09:29:26;;;;;;;29.82;14.45;;;;;;;0.62;96.20;100248.41;1774907;81;21141;-54
2022/12/09 09:31:56;;;;;;;32.17;15.90;;;;;;;0.64;96.14;100245.57;1788506;79;21151;-55
2022/12/09 09:34:26;;;;;;;26.20;12.82;;;;;;;0.64;95.99;100244.22;1775181;80;21306;-56
2022/12/09 09:36:55;;;;;;;27.95;13.88;;;;;;;0.63;95.70;100244.72;1773966;80;21559;-55
2022/12/09 09:39:25;;;;;;;31.15;13.98;;;;;;;0.58;95.69;100237.54;1770379;80;21112;-55
2022/12/09 09:41:58;;;;;;;29.48;14.80;;;;;;;0.58;95.76;100236.69;1776055;80;21589;-56
2022/12/09 09:44:48;;;;;;;28.90;13.43;;;;;;;0.56;95.76;100225.19;1773102;80;21589;-57
2022/12/09 09:47:38;;;;;;;27.80;11.88;;;;;;;0.56;95.82;100231.92;1770306;79;21092;-56
2022/12/09 09:50:22;;;;;;;24.72;11.93;;;;;;;0.57;95.85;100226.89;1771620;80;21105;-55
2022/12/09 09:52:54;;;;;;;28.23;13.45;;;;;;;0.60;95.90;100225.27;1770413;80;21153;-57
2022/12/09 09:55:48;;;;;;;30.62;13.98;;;;;;;0.61;95.91;100217.54;1770416;80;21092;-57
2022/12/09 09:58:36;;;;;;;31.48;14.15;;;;;;;0.62;95.98;100218.75;1768198;80;21175;-57
2022/12/09 10:01:12;;;;;;;34.73;15.48;;;;;;;0.62;95.98;100214.70;1771698;80;21159;-56
2022/12/09 10:04:04;;;;;;;38.13;16.82;;;;;;;0.64;96.04;100205.12;1769955;80;21350;-55
2022/12/09 10:07:07;;;;;;;27.80;12.20;;;;;;;0.68;96.16;100204.39;1773130;80;21191;-54
2022/12/09 16:53:46;;;;;;;96.63;32.53;;;;;;;0.94;100.00;100058.05;1813469;75;24733;-65
2022/12/09 16:56:24;;;;;;;86.85;33.95;;;;;;;0.92;100.00;100057.34;1767966;81;21135;-64
2022/12/09 16:58:54;;;;;;;91.08;32.48;;;;;;;0.98;100.00;100062.66;1788347;80;21145;-66
2022/12/09 17:01:29;;;;;;;77.85;31.70;;;;;;;1.02;100.00;100061.88;1797733;80;22078;-64
2022/12/09 17:04:04;;;;;;;75.57;30.08;;;;;;;1.06;100.00;100064.63;1760907;81;21201;-67
2022/12/09 17:06:33;;;;;;;69.92;27.93;;;;;;;1.11;100.00;100056.95;1760637;81;21161;-67
2022/12/09 17:09:02;;;;;;;68.85;28.20;;;;;;;1.15;100.00;100060.56;1761202;81;21150;-66
2022/12/09 17:11:31;;;;;;;65.78;26.55;;;;;;;1.23;100.00;100054.44;1761472;81;21157;-65
2022/12/09 17:14:01;;;;;;;69.70;27.87;;;;;;;1.25;100.00;100056.48;1761504;81;21126;-64
2022/12/09 17:16:33;;;;;;;68.20;25.88;;;;;;;1.28;100.00;100061.59;1761511;81;21166;-64
2022/12/09 17:19:04;;;;;;;71.92;28.40;;;;;;;1.32;100.00;100060.34;1761234;81;21114;-65
2022/12/09 17:21:34;;;;;;;63.48;26.37;;;;;;;1.35;100.00;100069.48;1761461;81;21098;-63
2022/12/09 17:24:10;;;;;;;69.87;28.07;;;;;;;1.37;100.00;100059.40;1761576;81;21194;-64
2022/12/09 17:26:40;;;;;;;64.82;28.20;;;;;;;1.41;100.00;100065.35;1761573;81;21209;-65
2022/12/09 17:29:11;;;;;;;69.67;28.12;;;;;;;1.42;100.00;100059.80;1761680;81;21162;-65
2022/12/09 17:31:40;;;;;;;68.30;29.05;;;;;;;1.45;100.00;100068.95;1761357;81;21149;-63
2022/12/09 17:34:10;;;;;;;67.12;27.65;;;;;;;1.46;100.00;100063.06;1761608;81;21174;-63
2022/12/09 17:36:39;;;;;;;57.88;24.25;;;;;;;1.49;100.00;100068.16;1761909;81;21150;-64
2022/12/09 17:39:09;;;;;;;57.33;24.20;;;;;;;1.49;100.00;100071.71;1761517;81;21126;-64
2022/12/09 17:41:38;;;;;;;61.00;25.27;;;;;;;1.47;100.00;100063.41;1761632;81;21193;-64
2022/12/09 17:44:08;;;;;;;55.70;23.98;;;;;;;1.45;100.00;100057.31;1761441;81;21099;-64
2022/12/09 17:46:38;;;;;;;58.90;24.15;;;;;;;1.45;100.00;100055.45;1761845;81;21145;-66
2022/12/09 17:49:07;;;;;;;56.77;23.98;;;;;;;1.46;100.00;100055.81;1761439;81;21122;-66
2022/12/09 17:51:36;;;;;;;60.30;24.57;;;;;;;1.48;100.00;100056.52;1761402;81;21655;-66
2022/12/09 17:54:06;;;;;;;63.28;26.45;;;;;;;1.51;100.00;100051.31;1754928;81;21158;-65
2022/12/09 17:56:36;;;;;;;63.55;26.55;;;;;;;1.51;100.00;100044.07;1740833;82;21155;-64
2022/12/09 17:59:10;;;;;;;69.80;27.75;;;;;;;1.53;100.00;100042.07;1741195;82;21562;-66
2022/12/09 18:01:42;;;;;;;67.70;27.60;;;;;;;1.54;100.00;100043.77;1772120;80;21158;-65
2022/12/09 18:04:13;;;;;;;73.40;27.20;;;;;;;1.55;100.00;100040.07;1770035;81;21193;-64
2022/12/09 18:06:44;;;;;;;70.67;26.65;;;;;;;1.53;100.00;100035.32;1769797;80;21150;-64
2022/12/09 18:09:16;;;;;;;69.82;27.22;;;;;;;1.50;100.00;100027.52;1769871;81;21162;-63
2022/12/09 18:11:45;;;;;;;74.30;28.02;;;;;;;1.48;100.00;100019.22;1769882;81;21135;-65
2022/12/09 18:14:16;;;;;;;76.45;29.42;;;;;;;1.47;100.00;100014.31;1769809;80;21150;-66
2022/12/09 18:16:45;;;;;;;73.00;28.67;;;;;;;1.47;100.00;100022.92;1769856;81;21095;-64
2022/12/09 18:19:16;;;;;;;78.02;30.85;;;;;;;1.45;100.00;100013.62;1769772;81;21143;-66
2022/12/09 18:21:45;;;;;;;86.80;29.27;;;;;;;1.43;100.00;100014.77;1748730;81;21147;-64
2022/12/09 18:24:14;;;;;;;83.90;31.20;;;;;;;1.43;100.00;100014.77;1769808;81;21119;-66
2022/12/09 18:26:44;;;;;;;83.20;33.85;;;;;;;1.43;100.00;100009.37;1769979;81;21158;-64
2022/12/09 18:29:14;;;;;;;88.72;33.92;;;;;;;1.44;100.00;100005.17;1770005;81;21534;-65
2022/12/09 18:31:54;;;;;;;90.38;33.67;;;;;;;1.46;100.00;100004.52;1751469;81;21139;-64
2022/12/09 18:34:15;;;;;;;86.78;32.90;;;;;;;1.47;100.00;100006.72;1768732;81;21581;-64
2022/12/09 18:36:44;;;;;;;94.55;32.28;;;;;;;1.48;100.00;100003.88;1770047;81;21198;-65
2022/12/09 18:39:15;;;;;;;88.05;33.08;;;;;;;1.48;100.00;100003.88;1769811;80;21547;-66
2022/12/09 18:41:44;;;;;;;92.90;33.75;;;;;;;1.49;100.00;100004.72;1769908;81;21119;-66
2022/12/09 18:44:15;;;;;;;87.35;34.00;;;;;;;1.52;100.00;100015.22;1769803;81;21155;-66
2022/12/09 18:46:47;;;;;;;98.12;36.10;;;;;;;1.50;100.00;100022.62;1769853;81;21135;-65
2022/12/09 18:49:21;;;;;;;96.42;34.70;;;;;;;1.51;100.00;100020.27;1769843;81;21111;-66
2022/12/09 18:51:51;;;;;;;94.17;35.40;;;;;;;1.54;100.00;100029.42;1769880;80;21153;-65
2022/12/09 18:54:27;;;;;;;90.20;34.75;;;;;;;1.55;100.00;100035.17;1772084;81;21119;-66
2022/12/09 18:56:58;;;;;;;89.33;33.53;;;;;;;1.58;100.00;100032.17;1778567;80;21137;-64
2022/12/09 18:59:30;;;;;;;93.07;35.35;;;;;;;1.59;100.00;100032.02;1778339;81;21170;-66
2022/12/09 19:01:59;;;;;;;93.75;36.63;;;;;;;1.57;100.00;100038.07;1778470;81;21170;-65
2022/12/09 19:04:29;;;;;;;97.37;34.85;;;;;;;1.57;100.00;100038.57;1778508;81;21200;-65
2022/12/09 19:06:59;;;;;;;89.30;34.05;;;;;;;1.56;100.00;100028.27;1778414;81;21102;-64
2022/12/09 19:09:33;;;;;;;87.57;32.17;;;;;;;1.56;100.00;100028.27;1778231;81;21154;-65
2022/12/09 19:12:03;;;;;;;86.70;31.40;;;;;;;1.58;100.00;100021.38;1778250;80;21534;-63
2022/12/09 19:14:40;;;;;;;74.53;28.65;;;;;;;1.54;100.00;100009.17;1774292;81;21170;-63
2022/12/09 19:17:06;;;;;;;75.25;28.57;;;;;;;1.53;100.00;100006.97;1777921;81;21584;-64
2022/12/09 19:19:35;;;;;;;79.72;26.55;;;;;;;1.52;100.00;99999.02;1778595;80;21129;-62
2022/12/09 19:22:07;;;;;;;76.25;27.30;;;;;;;1.52;100.00;100005.27;1778665;81;21111;-62
2022/12/09 19:24:35;;;;;;;83.33;27.70;;;;;;;1.52;100.00;100012.02;1778572;80;21557;-64
2022/12/09 19:27:08;;;;;;;80.22;27.90;;;;;;;1.51;100.00;100004.92;1778048;81;21128;-65
2022/12/09 19:29:38;;;;;;;77.25;27.55;;;;;;;1.50;100.00;100003.22;1778349;81;21142;-65
2022/12/09 19:32:07;;;;;;;71.02;25.85;;;;;;;1.49;100.00;100012.32;1778269;81;21561;-65
2022/12/09 19:34:38;;;;;;;74.10;25.62;;;;;;;1.49;100.00;99998.83;1774024;81;21596;-64
2022/12/09 19:37:08;;;;;;;69.53;24.07;;;;;;;1.49;100.00;100002.02;1778301;81;21626;-65
2022/12/09 19:39:40;;;;;;;60.70;21.60;;;;;;;1.49;100.00;100006.92;1778374;80;21167;-64
2022/12/09 19:42:09;;;;;;;64.75;23.22;;;;;;;1.49;100.00;100000.17;1778491;81;21155;-64
2022/12/09 19:44:38;;;;;;;74.00;24.02;;;;;;;1.51;100.00;100013.52;1778297;81;21118;-65
2022/12/09 19:47:09;;;;;;;59.65;22.50;;;;;;;1.51;100.00;100008.12;1774142;81;21326;-63
2022/12/09 19:49:40;;;;;;;66.17;24.32;;;;;;;1.49;100.00;100000.67;1778468;80;21576;-64
2022/12/09 19:52:10;;;;;;;70.85;24.43;;;;;;;1.48;100.00;100001.17;1778472;80;21166;-66